Time;durP1;ratioP1;P1;durP2;ratioP2;P2;SDS_P1;SDS_P2;PMS_P1;PMS_P2;Temp;Humidity;BMP_temperature;BMP_pressure;BME280_temperature;BME280_humidity;BME280_pressure;Samples;Min_cycle;Max_cycle;Signal;HPM_P1;HPM_P2
2022/05/26 00:02:22;;;;;;;27.75;7.75;;;14.10;99.90;;;;;;5037589;28;20055;-72
2022/05/26 00:04:47;;;;;;;25.52;7.32;;;14.10;99.90;;;;;;5031949;28;20046;-72
2022/05/26 00:07:13;;;;;;;20.35;6.18;;;14.10;99.90;;;;;;5035440;28;20048;-72
2022/05/26 00:09:38;;;;;;;29.25;7.97;;;14.10;99.90;;;;;;5033611;28;20490;-72
2022/05/26 00:12:06;;;;;;;25.13;7.93;;;14.00;99.90;;;;;;5034846;28;20045;-72
2022/05/26 00:14:32;;;;;;;19.38;6.97;;;14.00;99.90;;;;;;5033287;28;20056;-72
2022/05/26 00:16:58;;;;;;;26.85;8.18;;;14.00;99.90;;;;;;5033126;28;20037;-72
2022/05/26 00:19:24;;;;;;;26.58;8.10;;;14.00;99.90;;;;;;5033802;28;20128;-72
2022/05/26 00:21:49;;;;;;;25.50;7.88;;;14.00;99.90;;;;;;5030972;28;20485;-72
2022/05/26 00:24:18;;;;;;;21.90;7.63;;;14.00;99.90;;;;;;5032547;28;20048;-72
2022/05/26 00:26:44;;;;;;;20.23;6.90;;;13.90;99.90;;;;;;5036794;28;20570;-72
2022/05/26 00:29:10;;;;;;;21.73;6.68;;;13.90;99.90;;;;;;5035745;28;20399;-72
2022/05/26 00:31:36;;;;;;;23.75;7.70;;;13.90;99.90;;;;;;5035260;28;20176;-72
2022/05/26 00:34:02;;;;;;;27.85;6.97;;;13.80;99.90;;;;;;5037279;28;20395;-72
2022/05/26 00:36:38;;;;;;;24.88;7.07;;;13.80;99.90;;;;;;5033929;28;20038;-72
2022/05/26 00:39:24;;;;;;;29.00;7.28;;;13.80;99.90;;;;;;5029655;28;20049;-72
2022/05/26 00:42:00;;;;;;;23.05;6.10;;;13.80;99.90;;;;;;5030881;28;20045;-72
2022/05/26 00:44:27;;;;;;;23.58;7.65;;;13.70;99.90;;;;;;5029308;28;20045;-72
2022/05/26 00:47:16;;;;;;;29.58;7.68;;;13.70;99.90;;;;;;5033327;28;20091;-72
2022/05/26 00:49:45;;;;;;;23.10;7.47;;;13.70;99.90;;;;;;5030484;28;20067;-72
2022/05/26 00:52:23;;;;;;;26.58;7.32;;;13.70;99.90;;;;;;5016066;28;21000;-71
2022/05/26 00:54:52;;;;;;;25.52;8.40;;;13.70;99.90;;;;;;5026459;28;20107;-72
2022/05/26 00:57:23;;;;;;;19.50;6.90;;;13.60;99.90;;;;;;5030619;28;20038;-72
2022/05/26 01:00:00;;;;;;;25.60;8.07;;;13.70;99.90;;;;;;5032138;28;20085;-72
2022/05/26 01:02:33;;;;;;;23.40;6.80;;;13.70;99.90;;;;;;5035392;28;20493;-72
2022/05/26 01:05:16;;;;;;;21.85;7.10;;;13.70;99.90;;;;;;5031963;28;20041;-72
2022/05/26 01:07:42;;;;;;;26.50;7.05;;;13.70;99.90;;;;;;5032829;28;20133;-72
2022/05/26 01:10:10;;;;;;;29.75;6.55;;;13.70;99.90;;;;;;5033853;28;20053;-72
2022/05/26 01:12:35;;;;;;;25.95;6.38;;;13.70;99.90;;;;;;5035217;28;20045;-72
2022/05/26 01:15:08;;;;;;;22.90;6.72;;;13.70;99.90;;;;;;5037442;28;20444;-72
2022/05/26 01:17:55;;;;;;;29.83;6.40;;;13.70;99.90;;;;;;5033105;28;20049;-72
2022/05/26 01:20:40;;;;;;;27.48;6.95;;;13.70;99.90;;;;;;5036648;28;20056;-72
2022/05/26 01:23:17;;;;;;;25.05;6.32;;;13.70;99.90;;;;;;5036254;28;20053;-72
2022/05/26 01:26:28;;;;;;;24.85;6.22;;;13.70;99.90;;;;;;5036243;28;20049;-72
2022/05/26 01:29:08;;;;;;;31.60;7.03;;;13.70;99.90;;;;;;5025198;28;20832;-72
2022/05/26 01:31:52;;;;;;;30.27;6.63;;;13.70;99.90;;;;;;5033669;28;20147;-72
2022/05/26 01:34:35;;;;;;;20.45;5.72;;;13.70;99.90;;;;;;5037309;28;20897;-72
2022/05/26 01:37:04;;;;;;;25.83;6.85;;;13.70;99.90;;;;;;5030349;28;20183;-72
2022/05/26 01:39:50;;;;;;;17.65;4.45;;;13.70;99.90;;;;;;5038285;28;20046;-73
2022/05/26 01:42:54;;;;;;;18.83;5.72;;;13.70;99.90;;;;;;5038354;28;20493;-72
2022/05/26 01:45:29;;;;;;;13.38;4.60;;;13.70;99.90;;;;;;5028966;28;20141;-72
2022/05/26 01:48:19;;;;;;;20.35;6.03;;;13.70;99.90;;;;;;5035151;28;20072;-72
2022/05/26 01:51:13;;;;;;;22.13;5.65;;;13.70;99.90;;;;;;5034645;28;20054;-72
2022/05/26 01:53:52;;;;;;;29.48;6.15;;;13.70;99.90;;;;;;5034356;28;20052;-72
2022/05/26 01:57:01;;;;;;;24.45;6.78;;;13.70;99.90;;;;;;5033723;28;20076;-72
2022/05/26 01:59:37;;;;;;;21.10;5.50;;;13.70;99.90;;;;;;5036121;28;20501;-72
2022/05/26 02:02:22;;;;;;;27.35;6.28;;;13.70;99.90;;;;;;5035783;28;20064;-72
2022/05/26 02:04:54;;;;;;;29.60;7.10;;;13.70;99.90;;;;;;5035847;28;20132;-72
2022/05/26 02:07:34;;;;;;;20.63;5.40;;;13.70;99.90;;;;;;5035081;28;20055;-72
2022/05/26 02:10:03;;;;;;;26.08;6.15;;;13.70;99.90;;;;;;5036388;28;20049;-72
2022/05/26 02:12:33;;;;;;;17.75;5.53;;;13.70;99.90;;;;;;5038328;28;20033;-72
2022/05/26 02:15:04;;;;;;;20.88;6.22;;;13.70;99.90;;;;;;5032244;28;20061;-72
2022/05/26 02:17:33;;;;;;;20.52;5.78;;;13.70;99.90;;;;;;5033746;28;20037;-72
2022/05/26 02:20:06;;;;;;;25.30;6.50;;;13.70;99.90;;;;;;5034371;28;20099;-72
2022/05/26 02:22:59;;;;;;;20.85;5.63;;;13.60;99.90;;;;;;5033828;28;20056;-72
2022/05/26 02:25:26;;;;;;;13.55;4.75;;;13.70;99.90;;;;;;5036498;28;20041;-72
2022/05/26 02:27:57;;;;;;;22.80;6.35;;;13.70;99.90;;;;;;5033737;28;20045;-72
2022/05/26 02:30:33;;;;;;;18.42;6.18;;;13.60;99.90;;;;;;5031267;28;20045;-72
2022/05/26 02:33:01;;;;;;;18.45;4.95;;;13.60;99.90;;;;;;5030664;28;20084;-72
2022/05/26 02:35:46;;;;;;;20.15;5.65;;;13.60;99.90;;;;;;5035128;28;20045;-72
2022/05/26 02:38:22;;;;;;;17.80;5.38;;;13.60;99.90;;;;;;5033101;28;20095;-72
2022/05/26 02:40:49;;;;;;;14.45;4.00;;;13.60;99.90;;;;;;5032662;28;20460;-72
2022/05/26 02:43:27;;;;;;;17.15;5.43;;;13.50;99.90;;;;;;5038953;28;20099;-72
2022/05/26 02:45:55;;;;;;;22.05;4.93;;;13.50;99.90;;;;;;5031983;28;20400;-72
2022/05/26 02:48:45;;;;;;;17.15;5.07;;;13.40;99.90;;;;;;5034690;28;20071;-72
2022/05/26 02:51:28;;;;;;;12.43;3.75;;;13.40;99.90;;;;;;5035102;28;20072;-72
2022/05/26 02:54:00;;;;;;;15.73;4.63;;;13.40;99.90;;;;;;5032376;28;20452;-72
2022/05/26 02:56:55;;;;;;;14.50;4.45;;;13.60;99.90;;;;;;5033921;28;20136;-72
2022/05/26 02:59:44;;;;;;;13.65;3.45;;;13.30;99.90;;;;;;5032926;28;20387;-73
2022/05/26 03:02:23;;;;;;;20.15;3.70;;;13.30;99.90;;;;;;5036812;28;20405;-72
2022/05/26 03:05:12;;;;;;;16.80;4.30;;;13.20;99.90;;;;;;5033771;28;20080;-72
2022/05/26 03:07:42;;;;;;;12.50;3.75;;;13.20;99.90;;;;;;5035998;28;20064;-72
2022/05/26 03:10:09;;;;;;;12.27;4.18;;;13.20;99.90;;;;;;5029393;28;20398;-72
2022/05/26 03:12:36;;;;;;;12.15;4.13;;;13.20;99.90;;;;;;5037176;28;20110;-72
2022/05/26 03:15:05;;;;;;;18.02;3.60;;;13.10;99.90;;;;;;5033131;28;20061;-72
2022/05/26 03:17:30;;;;;;;13.52;3.40;;;13.10;99.90;;;;;;5032965;28;20042;-72
2022/05/26 03:19:56;;;;;;;16.55;3.55;;;13.10;99.90;;;;;;5032305;28;20724;-72
2022/05/26 03:22:22;;;;;;;9.75;3.70;;;13.10;99.90;;;;;;5034953;28;20383;-72
2022/05/26 03:24:48;;;;;;;12.60;3.95;;;13.10;99.90;;;;;;5032785;28;20048;-71
2022/05/26 03:27:14;;;;;;;15.15;3.72;;;13.10;99.90;;;;;;5035925;28;20052;-72
2022/05/26 03:29:40;;;;;;;13.23;3.88;;;13.10;99.90;;;;;;5032101;28;20037;-71
2022/05/26 03:32:06;;;;;;;12.70;3.78;;;13.10;99.90;;;;;;5033873;28;20136;-71
2022/05/26 03:42:48;;;;;;;9.35;2.78;;;13.10;99.90;;;;;;5039993;28;20386;-71
2022/05/26 03:45:16;;;;;;;11.48;3.58;;;13.10;99.90;;;;;;5031201;28;20452;-72
2022/05/26 03:47:42;;;;;;;10.65;2.67;;;13.10;99.90;;;;;;5034451;28;20054;-72
2022/05/26 03:50:08;;;;;;;12.98;3.13;;;13.10;99.90;;;;;;5031616;28;20052;-71
2022/05/26 03:52:34;;;;;;;8.45;3.15;;;13.10;99.90;;;;;;5033592;28;20091;-71
2022/05/26 03:54:59;;;;;;;6.95;2.47;;;13.10;99.90;;;;;;5032419;28;20045;-71
2022/05/26 03:57:27;;;;;;;7.53;2.05;;;13.10;99.90;;;;;;5032792;28;20052;-71
2022/05/26 03:59:53;;;;;;;6.50;1.77;;;13.00;99.90;;;;;;5033056;28;20111;-71
2022/05/26 04:02:19;;;;;;;8.00;2.22;;;13.10;99.90;;;;;;5028970;28;20465;-71
2022/05/26 04:04:45;;;;;;;7.90;2.28;;;13.10;99.90;;;;;;5032312;28;20088;-71
2022/05/26 04:07:12;;;;;;;6.65;1.60;;;13.10;99.90;;;;;;5018221;28;20061;-71
2022/05/26 04:09:39;;;;;;;7.93;2.13;;;13.10;99.90;;;;;;5028985;28;20673;-71
2022/05/26 04:12:06;;;;;;;8.88;2.50;;;13.10;99.90;;;;;;5031806;28;20048;-71
2022/05/26 04:14:32;;;;;;;8.05;2.22;;;13.10;99.90;;;;;;5032624;28;20645;-72
2022/05/26 04:16:59;;;;;;;9.77;1.95;;;13.00;99.90;;;;;;5031829;28;20084;-72
2022/05/26 04:19:25;;;;;;;8.77;2.13;;;13.10;99.90;;;;;;5028803;28;20433;-72
2022/05/26 04:24:35;;;;;;;9.68;2.67;;;13.00;99.90;;;;;;5033833;28;20037;-72
2022/05/26 04:27:00;;;;;;;4.55;1.52;;;13.00;99.90;;;;;;5031712;28;20532;-72
2022/05/26 04:29:27;;;;;;;8.18;1.73;;;13.00;99.90;;;;;;5035784;28;20098;-71
2022/05/26 04:31:53;;;;;;;7.07;1.92;;;13.00;99.90;;;;;;5033421;28;20080;-71
2022/05/26 04:34:19;;;;;;;9.25;1.63;;;12.90;99.90;;;;;;5033377;28;20504;-71
2022/05/26 04:36:45;;;;;;;10.63;1.95;;;13.00;99.90;;;;;;5033457;28;20048;-71
2022/05/26 04:39:11;;;;;;;9.88;1.48;;;13.00;99.90;;;;;;5031538;28;20053;-71
2022/05/26 04:41:36;;;;;;;7.97;2.03;;;13.00;99.90;;;;;;5029174;28;20034;-71
2022/05/26 04:44:02;;;;;;;9.60;1.92;;;13.00;99.90;;;;;;5033021;28;20077;-71
2022/05/26 04:46:28;;;;;;;6.07;1.88;;;13.00;99.90;;;;;;5030726;28;20048;-71
2022/05/26 04:48:53;;;;;;;8.18;1.42;;;13.00;99.90;;;;;;5039249;28;20559;-71
2022/05/26 04:51:19;;;;;;;4.18;1.58;;;12.90;99.90;;;;;;5039864;28;20029;-71
2022/05/26 04:53:45;;;;;;;11.15;1.95;;;13.00;99.90;;;;;;5037225;28;20608;-71
2022/05/26 04:56:11;;;;;;;6.10;1.63;;;13.00;99.90;;;;;;5033890;28;20548;-71
2022/05/26 04:58:37;;;;;;;6.32;1.75;;;13.00;99.90;;;;;;5036171;28;20156;-71
2022/05/26 05:01:13;;;;;;;6.93;1.73;;;13.00;99.90;;;;;;5038671;28;20045;-71
2022/05/26 05:03:39;;;;;;;7.68;1.80;;;13.10;99.90;;;;;;5038786;28;20049;-71
2022/05/26 05:06:05;;;;;;;8.18;2.15;;;13.10;99.90;;;;;;5032732;28;20570;-71
2022/05/26 05:08:30;;;;;;;4.97;1.05;;;13.10;99.90;;;;;;5038631;28;20440;-71
2022/05/26 05:10:57;;;;;;;8.30;1.33;;;13.10;99.90;;;;;;5033458;28;20046;-71
2022/05/26 05:13:23;;;;;;;9.38;1.73;;;13.10;99.90;;;;;;5036352;28;20048;-71
2022/05/26 05:16:01;;;;;;;8.00;1.88;;;13.20;99.90;;;;;;5031486;28;20057;-71
2022/05/26 05:18:27;;;;;;;7.65;1.33;;;13.20;99.90;;;;;;5034874;28;20484;-72
2022/05/26 05:20:54;;;;;;;8.35;2.22;;;13.20;99.90;;;;;;5032156;28;20052;-71
2022/05/26 05:23:20;;;;;;;3.25;1.10;;;13.30;99.90;;;;;;5039243;28;20516;-72
2022/05/26 05:25:49;;;;;;;6.70;1.50;;;13.30;99.90;;;;;;5034850;28;20053;-71
2022/05/26 05:28:29;;;;;;;9.30;1.65;;;13.30;99.90;;;;;;5032595;28;20034;-71
2022/05/26 05:31:09;;;;;;;8.00;1.75;;;13.40;99.90;;;;;;5032186;28;20512;-72
2022/05/26 05:33:40;;;;;;;12.30;2.10;;;13.40;99.90;;;;;;5036104;28;20456;-71
2022/05/26 05:36:06;;;;;;;3.80;1.08;;;13.50;99.90;;;;;;5036168;28;20083;-71
2022/05/26 05:38:34;;;;;;;12.23;1.60;;;13.50;99.90;;;;;;5035948;28;20402;-71
2022/05/26 05:41:01;;;;;;;4.82;1.15;;;13.60;99.90;;;;;;5034640;28;20057;-71
2022/05/26 05:43:29;;;;;;;4.95;1.27;;;13.60;99.90;;;;;;5033885;28;20592;-71
2022/05/26 05:45:54;;;;;;;4.63;1.20;;;13.70;99.90;;;;;;5037014;28;20160;-72
2022/05/26 05:48:21;;;;;;;8.57;1.40;;;13.70;99.90;;;;;;5035516;28;20120;-71
2022/05/26 05:50:47;;;;;;;12.00;1.42;;;13.70;99.90;;;;;;5034081;28;20561;-71
2022/05/26 05:53:15;;;;;;;4.68;2.15;;;13.70;99.90;;;;;;5036761;28;20056;-71
2022/05/26 05:55:41;;;;;;;9.45;1.95;;;13.80;99.90;;;;;;5016707;28;20041;-71
2022/05/26 05:58:08;;;;;;;4.72;1.40;;;13.80;99.90;;;;;;5034750;28;20056;-71
2022/05/26 06:00:34;;;;;;;10.38;1.63;;;13.90;99.90;;;;;;5034588;28;20048;-71
2022/05/26 06:03:00;;;;;;;7.53;1.40;;;13.90;99.90;;;;;;5032042;28;20064;-71
2022/05/26 06:05:26;;;;;;;6.13;1.73;;;14.00;99.90;;;;;;5033237;28;20512;-71
2022/05/26 06:07:52;;;;;;;7.70;1.65;;;14.00;99.90;;;;;;5035569;28;20433;-71
2022/05/26 06:10:17;;;;;;;5.13;1.50;;;14.10;99.90;;;;;;5031411;28;20050;-71
2022/05/26 06:12:43;;;;;;;5.25;1.60;;;14.10;99.90;;;;;;5037496;28;20057;-71
2022/05/26 06:15:09;;;;;;;4.40;1.40;;;14.20;99.90;;;;;;5033370;28;20059;-71
2022/05/26 06:17:35;;;;;;;6.00;1.30;;;14.20;99.90;;;;;;5036106;28;20703;-71
2022/05/26 06:20:02;;;;;;;5.72;1.20;;;14.20;99.90;;;;;;5035423;28;20535;-71
2022/05/26 06:22:29;;;;;;;7.28;1.38;;;14.30;99.90;;;;;;5037156;28;20029;-71
2022/05/26 06:24:55;;;;;;;8.25;1.70;;;14.40;99.90;;;;;;5036625;28;20513;-71
2022/05/26 06:30:09;;;;;;;5.45;1.40;;;14.50;99.90;;;;;;5030605;28;20053;-71
2022/05/26 06:38:15;;;;;;;11.55;2.25;;;14.60;99.90;;;;;;5033212;28;20085;-71
2022/05/26 06:40:41;;;;;;;5.28;1.15;;;14.60;99.90;;;;;;5035398;28;20449;-71
2022/05/26 06:43:07;;;;;;;3.30;1.05;;;14.60;99.90;;;;;;5036881;28;20091;-71
2022/05/26 06:45:34;;;;;;;6.00;2.10;;;14.60;99.90;;;;;;5034223;28;20401;-71
2022/05/26 06:48:00;;;;;;;8.25;1.33;;;14.60;99.90;;;;;;5035232;28;20057;-71
2022/05/26 06:50:25;;;;;;;7.97;1.20;;;14.60;99.90;;;;;;5037957;28;20056;-71
2022/05/26 06:52:51;;;;;;;4.93;1.20;;;14.60;99.90;;;;;;5037482;28;20517;-71
2022/05/26 06:55:17;;;;;;;1.80;0.98;;;14.60;99.90;;;;;;5039078;28;20138;-71
2022/05/26 06:57:42;;;;;;;4.95;1.02;;;14.70;99.90;;;;;;5033508;28;20041;-71
2022/05/26 07:00:09;;;;;;;6.38;1.23;;;14.70;99.90;;;;;;5032008;28;20049;-71
2022/05/26 07:02:35;;;;;;;4.63;1.13;;;14.70;99.90;;;;;;5034339;28;20041;-71
2022/05/26 07:05:01;;;;;;;6.53;1.30;;;14.80;99.90;;;;;;5036829;28;20053;-71
2022/05/26 07:07:27;;;;;;;4.20;1.35;;;14.80;99.90;;;;;;5034221;28;20034;-71
2022/05/26 07:09:54;;;;;;;8.70;1.50;;;14.80;99.90;;;;;;5032925;28;20507;-71
2022/05/26 07:12:21;;;;;;;5.63;1.75;;;14.70;99.90;;;;;;5031465;28;20041;-71
2022/05/26 07:14:46;;;;;;;4.35;1.20;;;14.80;99.90;;;;;;5032780;28;20049;-71
2022/05/26 07:17:12;;;;;;;2.53;1.00;;;14.70;99.90;;;;;;5036523;28;20509;-71
2022/05/26 07:19:38;;;;;;;4.18;1.30;;;14.70;99.90;;;;;;5031166;28;20055;-68
2022/05/26 07:22:04;;;;;;;5.50;1.13;;;14.70;99.90;;;;;;5034170;28;20037;-68
2022/05/26 07:24:30;;;;;;;5.43;1.30;;;14.70;99.90;;;;;;5029809;28;20136;-68
2022/05/26 07:26:56;;;;;;;3.28;1.10;;;14.70;99.90;;;;;;5031110;28;20136;-68
2022/05/26 07:29:22;;;;;;;3.80;1.00;;;14.80;99.90;;;;;;5032353;28;20552;-68
2022/05/26 07:31:48;;;;;;;5.63;1.38;;;14.80;99.90;;;;;;5034150;28;20037;-68
2022/05/26 07:34:14;;;;;;;2.65;0.90;;;14.90;99.90;;;;;;5029573;28;20055;-68
2022/05/26 07:42:15;;;;;;;9.13;1.55;;;15.10;99.90;;;;;;5024774;28;20049;-70
2022/05/26 07:44:45;;;;;;;6.72;0.88;;;15.20;99.90;;;;;;5032015;28;20045;-71
2022/05/26 07:47:11;;;;;;;3.65;0.98;;;15.20;99.90;;;;;;5029313;28;20091;-67
2022/05/26 07:49:47;;;;;;;5.35;1.13;;;15.50;99.90;;;;;;5026274;28;20140;-77
2022/05/26 07:52:14;;;;;;;4.35;0.93;;;15.40;99.90;;;;;;5040162;28;20093;-73
2022/05/26 07:54:39;;;;;;;4.53;1.05;;;15.50;99.90;;;;;;5035466;28;20116;-74
2022/05/26 07:57:06;;;;;;;3.78;0.95;;;15.50;99.90;;;;;;5030206;28;20105;-73
2022/05/26 07:59:31;;;;;;;3.28;0.98;;;15.60;99.90;;;;;;5027285;28;20077;-67
2022/05/26 08:01:58;;;;;;;2.38;1.15;;;15.60;99.90;;;;;;5036178;28;20084;-68
2022/05/26 08:04:23;;;;;;;8.57;1.33;;;15.60;99.90;;;;;;5030858;28;20123;-68
2022/05/26 08:06:49;;;;;;;8.40;1.67;;;15.70;99.90;;;;;;5037459;28;20132;-66
2022/05/26 08:09:21;;;;;;;5.05;1.05;;;15.70;99.90;;;;;;5027139;28;20405;-70
2022/05/26 08:11:47;;;;;;;4.65;1.20;;;15.70;99.90;;;;;;5027629;28;20585;-66
2022/05/26 08:14:13;;;;;;;4.55;1.10;;;15.70;99.90;;;;;;5030244;28;20441;-69
2022/05/26 08:16:39;;;;;;;4.75;1.10;;;15.70;99.90;;;;;;5035174;28;20042;-66
2022/05/26 08:19:05;;;;;;;5.70;1.50;;;15.70;99.90;;;;;;5033200;28;20061;-66
2022/05/26 08:21:32;;;;;;;6.65;1.40;;;15.80;99.90;;;;;;5035737;28;20041;-67
2022/05/26 08:23:58;;;;;;;5.40;1.55;;;15.90;99.90;;;;;;5032311;28;20045;-67
2022/05/26 08:26:23;;;;;;;6.55;1.05;;;15.90;99.90;;;;;;5029334;28;20056;-67
2022/05/26 08:28:49;;;;;;;6.15;1.58;;;16.00;99.90;;;;;;5028959;28;20053;-67
2022/05/26 08:31:15;;;;;;;4.43;0.73;;;16.10;99.90;;;;;;5029158;28;20054;-71
2022/05/26 08:33:41;;;;;;;9.10;1.63;;;16.30;99.90;;;;;;5012190;28;20410;-71
2022/05/26 08:36:10;;;;;;;5.10;1.38;;;16.40;99.90;;;;;;5029990;28;20055;-71
2022/05/26 08:38:36;;;;;;;5.90;1.30;;;16.50;99.90;;;;;;5029503;28;20084;-66
2022/05/26 08:41:03;;;;;;;6.90;1.42;;;16.60;99.90;;;;;;5033161;28;20056;-66
2022/05/26 08:43:58;;;;;;;3.53;0.80;;;16.60;99.90;;;;;;5036771;28;20036;-66
2022/05/26 08:47:01;;;;;;;7.70;1.20;;;16.70;99.90;;;;;;5033825;28;20061;-66
2022/05/26 08:49:26;;;;;;;;;;;16.80;99.90;;;;;;5025583;28;20053;-69
2022/05/26 08:52:18;;;;;;;3.05;0.90;;;16.80;99.90;;;;;;5030231;28;19925;-70
2022/05/26 08:55:11;;;;;;;2.35;0.75;;;16.80;99.90;;;;;;5032384;28;20770;-67
2022/05/26 08:57:41;;;;;;;4.47;1.05;;;16.70;99.90;;;;;;5027674;28;20088;-68
2022/05/26 09:00:13;;;;;;;6.05;1.42;;;16.50;99.90;;;;;;5031727;28;20091;-71
2022/05/26 09:02:40;;;;;;;4.50;0.93;;;16.60;99.90;;;;;;5031477;28;20046;-68
2022/05/26 09:05:13;;;;;;;5.90;1.50;;;16.60;99.90;;;;;;5031690;28;20041;-71
2022/05/26 09:13:18;;;;;;;3.30;1.00;;;16.90;99.90;;;;;;5005417;28;20050;-69
2022/05/26 09:15:44;;;;;;;1.98;0.80;;;17.00;99.90;;;;;;5033734;28;20397;-67
2022/05/26 09:18:21;;;;;;;4.63;1.00;;;17.10;99.90;;;;;;5033903;28;20494;-67
2022/05/26 09:20:51;;;;;;;1.95;0.70;;;17.20;99.90;;;;;;5030836;28;20052;-67
2022/05/26 09:23:28;;;;;;;3.22;0.73;;;17.30;99.90;;;;;;5027369;28;20048;-68
2022/05/26 09:26:08;;;;;;;9.23;1.00;;;17.30;99.90;;;;;;5032809;28;20049;-67
2022/05/26 09:28:37;;;;;;;2.53;0.82;;;17.30;99.90;;;;;;5027956;28;20050;-67
2022/05/26 09:31:29;;;;;;;4.20;0.90;;;17.20;99.90;;;;;;5031379;28;20520;-66
2022/05/26 09:34:05;;;;;;;3.35;0.80;;;17.20;99.90;;;;;;5026422;28;20128;-67
2022/05/26 09:36:39;;;;;;;3.67;0.95;;;17.30;99.90;;;;;;5028353;28;20084;-67
2022/05/26 09:39:06;;;;;;;2.72;1.02;;;17.40;99.90;;;;;;5029925;28;20052;-67
2022/05/26 09:41:42;;;;;;;5.68;0.93;;;17.60;99.90;;;;;;5036591;28;20037;-68
2022/05/26 09:44:23;;;;;;;4.38;0.57;;;17.50;99.90;;;;;;5027556;28;20406;-68
2022/05/26 09:46:52;;;;;;;2.63;0.55;;;17.50;99.90;;;;;;5031394;28;20689;-64
2022/05/26 09:49:23;;;;;;;5.20;0.90;;;17.50;99.90;;;;;;5030727;28;21885;-65
2022/05/26 09:51:49;;;;;;;2.05;0.65;;;17.70;99.90;;;;;;5032509;28;20045;-66
2022/05/26 09:54:30;;;;;;;2.42;0.57;;;17.60;99.90;;;;;;5035799;28;20056;-65
2022/05/26 09:56:56;;;;;;;4.55;0.77;;;17.70;99.90;;;;;;5048099;28;20469;-66
2022/05/26 09:59:32;;;;;;;6.63;0.70;;;17.70;99.90;;;;;;5040118;28;20132;-65
2022/05/26 10:02:06;;;;;;;3.15;0.75;;;17.70;99.90;;;;;;5033111;28;20045;-66
2022/05/26 10:04:55;;;;;;;2.47;0.93;;;17.60;99.90;;;;;;5047985;28;20041;-66
2022/05/26 10:07:36;;;;;;;4.45;1.38;;;17.60;99.90;;;;;;5027965;28;20045;-70
2022/05/26 10:10:32;;;;;;;2.30;0.57;;;17.50;99.90;;;;;;5031567;28;20460;-62
2022/05/26 10:13:18;;;;;;;8.32;1.10;;;17.50;99.90;;;;;;5033303;28;20060;-64
2022/05/26 10:16:25;;;;;;;3.55;0.75;;;17.40;99.90;;;;;;5033914;28;20577;-62
2022/05/26 10:19:26;;;;;;;3.17;0.70;;;17.50;99.90;;;;;;5033890;28;20045;-64
2022/05/26 10:22:43;;;;;;;2.55;1.10;;;17.50;99.90;;;;;;5031038;28;20409;-65
2022/05/26 10:25:09;;;;;;;2.90;0.93;;;17.40;99.90;;;;;;5018925;28;20053;-65
2022/05/26 10:27:39;;;;;;;2.08;0.77;;;17.40;99.90;;;;;;5033183;28;20037;-66
2022/05/26 10:30:08;;;;;;;3.53;0.90;;;17.30;99.90;;;;;;5026740;28;20049;-66
2022/05/26 10:32:55;;;;;;;4.28;0.88;;;17.40;99.90;;;;;;5027386;28;20094;-65
2022/05/26 10:35:39;;;;;;;3.50;0.80;;;17.40;99.90;;;;;;5030014;28;20049;-66
2022/05/26 10:38:08;;;;;;;2.03;0.70;;;17.30;99.90;;;;;;5026663;28;20049;-64
2022/05/26 10:40:46;;;;;;;3.42;0.80;;;17.40;99.90;;;;;;5027293;28;20045;-65
2022/05/26 10:43:21;;;;;;;3.15;0.80;;;17.40;99.90;;;;;;5025666;28;20069;-64
2022/05/26 10:45:48;;;;;;;2.78;0.80;;;17.50;99.90;;;;;;5030841;28;20041;-64
2022/05/26 10:48:46;;;;;;;4.53;1.13;;;17.80;99.90;;;;;;5028278;28;20053;-67
2022/05/26 10:51:21;;;;;;;2.58;1.00;;;17.80;99.90;;;;;;5028748;28;20536;-68
2022/05/26 10:53:53;;;;;;;6.22;1.45;;;17.90;99.90;;;;;;5043964;28;20057;-64
2022/05/26 10:56:46;;;;;;;4.18;1.35;;;18.00;99.90;;;;;;5024998;28;20046;-64
2022/05/26 10:59:23;;;;;;;4.70;1.42;;;18.00;99.90;;;;;;5030948;28;20084;-64
2022/05/26 11:01:52;;;;;;;3.90;1.05;;;18.00;99.90;;;;;;5029815;28;20041;-64
2022/05/26 11:04:40;;;;;;;4.43;1.38;;;17.90;99.90;;;;;;5025505;28;20125;-64
2022/05/26 11:07:16;;;;;;;3.58;1.33;;;18.00;99.90;;;;;;5026151;28;20054;-67
2022/05/26 11:10:05;;;;;;;3.95;1.30;;;18.10;99.90;;;;;;5028752;28;20221;-65
2022/05/26 11:12:36;;;;;;;7.20;1.17;;;18.00;99.90;;;;;;5030408;28;20047;-64
2022/05/26 11:18:33;;;;;;;4.20;1.15;;;17.90;99.90;;;;;;5015379;28;20490;-67
2022/05/26 11:20:59;;;;;;;7.15;1.23;;;18.10;99.90;;;;;;5026540;28;20045;-67
2022/05/26 11:23:28;;;;;;;12.55;1.42;;;18.30;99.90;;;;;;5045788;28;20045;-67
2022/05/26 11:26:03;;;;;;;8.05;1.52;;;18.60;99.90;;;;;;5045372;28;20140;-67
2022/05/26 11:28:45;;;;;;;3.33;1.00;;;18.70;99.90;;;;;;5046317;28;20037;-67
2022/05/26 11:37:29;;;;;;;5.03;1.40;;;18.30;99.90;;;;;;5046085;28;20501;-67
2022/05/26 11:40:02;;;;;;;1.85;1.13;;;18.30;99.90;;;;;;5044713;28;20049;-67
2022/05/26 11:42:34;;;;;;;5.32;0.75;;;18.30;99.90;;;;;;5046288;28;20037;-67
2022/05/26 11:45:26;;;;;;;7.32;0.88;;;18.40;99.90;;;;;;5046210;28;20090;-67
2022/05/26 11:48:07;;;;;;;3.93;0.93;;;18.30;99.90;;;;;;5045692;28;20135;-67
2022/05/26 11:50:36;;;;;;;3.55;0.88;;;18.30;99.90;;;;;;5046856;28;20044;-67
2022/05/26 11:53:05;;;;;;;3.30;1.02;;;18.40;99.90;;;;;;5045398;28;20063;-67
2022/05/26 11:55:48;;;;;;;3.45;1.13;;;18.40;99.90;;;;;;5045802;28;20083;-67
2022/05/26 11:58:44;;;;;;;4.20;0.90;;;18.40;99.90;;;;;;5046670;28;20103;-67
2022/05/26 12:01:27;;;;;;;3.08;1.17;;;18.30;99.90;;;;;;5043984;28;20128;-67
2022/05/26 12:03:53;;;;;;;6.97;1.25;;;18.40;99.90;;;;;;5046163;28;20049;-67
2022/05/26 12:06:36;;;;;;;8.35;2.10;;;18.60;99.90;;;;;;5046496;28;20399;-67
2022/05/26 12:09:17;;;;;;;5.45;1.02;;;18.60;99.90;;;;;;5044997;28;20128;-67
2022/05/26 12:11:53;;;;;;;2.80;1.27;;;18.50;99.90;;;;;;5046843;28;20078;-67
2022/05/26 12:14:54;;;;;;;2.78;1.00;;;18.50;99.90;;;;;;5045617;28;20298;-67
2022/05/26 12:17:42;;;;;;;3.83;1.08;;;18.40;99.90;;;;;;5045964;28;20043;-67
2022/05/26 12:20:10;;;;;;;2.65;0.80;;;18.40;99.90;;;;;;5044309;28;20473;-67
2022/05/26 12:22:54;;;;;;;2.88;0.85;;;18.50;99.90;;;;;;5045224;28;20123;-67
2022/05/26 12:25:25;;;;;;;3.50;1.02;;;18.50;99.90;;;;;;5046187;28;20248;-67
2022/05/26 12:28:04;;;;;;;3.15;1.13;;;18.60;99.90;;;;;;5045922;28;20045;-67
2022/05/26 12:30:30;;;;;;;3.72;1.30;;;18.80;99.90;;;;;;5046046;28;20081;-67
2022/05/26 12:32:56;;;;;;;5.38;1.83;;;18.80;99.90;;;;;;5045810;28;20119;-67
2022/05/26 12:35:25;;;;;;;2.85;1.25;;;18.70;99.90;;;;;;5043931;28;20048;-67
2022/05/26 12:38:23;;;;;;;3.95;1.48;;;18.80;99.90;;;;;;5045787;28;20500;-67
2022/05/26 12:41:06;;;;;;;3.65;1.17;;;18.90;99.90;;;;;;5042028;28;20242;-67
2022/05/26 12:43:35;;;;;;;6.85;1.45;;;18.90;99.90;;;;;;5044917;28;20517;-67
2022/05/26 12:46:25;;;;;;;4.85;1.33;;;18.80;99.90;;;;;;5045480;28;20048;-67
2022/05/26 12:49:40;;;;;;;7.50;1.60;;;18.70;99.90;;;;;;5045313;28;20405;-67
2022/05/26 12:52:15;;;;;;;3.75;1.05;;;18.60;99.90;;;;;;5022798;28;20734;-67
2022/05/26 12:55:25;;;;;;;8.48;1.40;;;18.50;99.90;;;;;;5023601;28;20481;-67
2022/05/26 12:58:01;;;;;;;6.70;1.50;;;18.50;99.90;;;;;;5038848;28;20055;-67
2022/05/26 13:00:38;;;;;;;3.58;1.20;;;18.50;99.90;;;;;;5045920;28;20458;-67
2022/05/26 13:03:08;;;;;;;3.65;1.05;;;18.60;99.90;;;;;;5045289;28;20555;-67
2022/05/26 13:05:41;;;;;;;3.88;1.15;;;18.50;99.90;;;;;;5045190;28;20045;-67
2022/05/26 13:08:20;;;;;;;5.60;0.90;;;18.40;99.90;;;;;;5046830;28;20041;-67
2022/05/26 13:10:51;;;;;;;4.10;0.98;;;18.40;99.90;;;;;;5048356;28;20049;-67
2022/05/26 13:13:23;;;;;;;4.93;1.80;;;18.30;99.90;;;;;;5049096;28;20049;-67
2022/05/26 13:15:48;;;;;;;6.05;1.30;;;18.30;99.90;;;;;;5048957;28;20041;-67
2022/05/26 13:18:23;;;;;;;4.15;1.30;;;18.30;99.90;;;;;;5048649;28;20074;-67
2022/05/26 13:20:49;;;;;;;4.28;1.20;;;18.20;99.90;;;;;;5047671;28;20501;-67
2022/05/26 13:23:31;;;;;;;3.40;1.20;;;18.10;99.90;;;;;;5049671;28;20083;-67
2022/05/26 13:25:58;;;;;;;;;;;18.10;99.90;;;;;;5048528;28;20052;-67
2022/05/26 13:28:30;;;;;;;4.25;1.55;;;18.00;99.90;;;;;;5027295;28;19965;-66
2022/05/26 13:33:45;;;;;;;5.93;1.15;;;17.90;99.90;;;;;;5032395;28;20041;-66
2022/05/26 13:36:25;;;;;;;4.28;1.50;;;17.90;99.90;;;;;;5037248;28;20559;-67
2022/05/26 13:38:50;;;;;;;6.22;1.55;;;17.90;99.90;;;;;;5037047;28;20072;-63
2022/05/26 13:41:20;;;;;;;8.55;1.08;;;17.90;99.90;;;;;;5035919;28;20056;-64
2022/05/26 13:43:47;;;;;;;6.50;1.20;;;17.80;99.90;;;;;;5028809;28;20045;-64
2022/05/26 13:46:38;;;;;;;5.47;1.30;;;18.00;99.90;;;;;;5028097;28;20049;-64
2022/05/26 13:49:39;;;;;;;5.93;1.40;;;17.70;99.90;;;;;;5028462;28;20171;-64
2022/05/26 13:52:23;;;;;;;4.07;1.07;;;17.70;99.90;;;;;;5006718;28;20049;-65
2022/05/26 13:55:31;;;;;;;2.75;1.00;;;17.70;99.90;;;;;;5037936;28;20081;-65
2022/05/26 13:57:58;;;;;;;4.97;1.65;;;17.60;99.90;;;;;;5008252;28;20512;-67
2022/05/26 14:00:34;;;;;;;4.07;1.30;;;17.50;99.90;;;;;;5022821;28;20057;-66